UACC/TSE METAR and TAF weather

Enter ICAO airport designator
Station Type Date Time Source
UACC METAR 2020/03/31 12:30 UTC NOAA

UACC 311230Z 06004MPS CAVOK 07/M00 Q1017 R04/0///70 NOSIG RMK QFE731/0975


Station Type Date Time Source
UACC Decoded METAR 2020/03/31 12:30 UTC NOAA

Astana, Kazakhstan (UACC) 51-12N 071-27E
Mar 31, 2020 - 08:30 AM EDT / 2020.03.31 1230 UTC
Wind: from the ENE (060 degrees) at 9 MPH (8 KT):0
Visibility: greater than 7 mile(s):0
Temperature: 44 F (7 C)
Dew Point: 32 F (0 C)
Relative Humidity: 60%
Pressure (altimeter): 30.03 in. Hg (1017 hPa)
ob: UACC 311230Z 06004MPS CAVOK 07/M00 Q1017 R04/0///70 NOSIG RMK QFE731/0975
cycle: 12

Station Type Date Time Source
UACC TAF 2020/03/31 12:24 UTC NOAA

TAF UACC 311100Z 3112/0112 10006MPS CAVOK TX12/0110Z TNM04/0101Z
BECMG 3116/3118 13006MPS
BECMG 0100/0103 16006MPS
FM010700 17006MPS 9999 SCT020 BKN100

Example: see airport list